Latest Weather Observations for Busselton Jetty

IDW60801

Issued at 1:32 am WST Monday 20 April 2015 (issued every 30 minutes, with the page automatically refreshed every 10 minutes)

About weather observations | Map of weather stations | Latest weather observations for WA | Other Formats
Station Details ID: 009937 Name: BUSSELTON JETTY Lat: -33.63 Lon: 115.34 Height: 3.0 m
Data from the previous 72 hours. | See also: Recent months for locations in Western Australia
Date/Time
WST
Temp
°C
App
Temp
°C
Dew
Point
Rel
Hum
%
Delta-T
°C
Wind Press
QNH
hPa
Press
MSL
hPa
Rain
since 9 am
mm
Dir
 
Spd
km/h
Gust
km/h
Spd
kts
Gust
kts
20/01:30am - - - - - ESE 15 19 8 10 - - -
20/01:00am - - - - - ESE 17 17 9 9 - - -
20/12:30am - - - - - ESE 15 17 8 9 - - -
20/12:00am - - - - - ESE 17 17 9 9 - - -
 
Date/Time
WST
Temp
°C
App
Temp
°C
Dew
Point
Rel
Hum
%
Delta-T
°C
Wind Press
QNH
hPa
Press
MSL
hPa
Rain
since 9 am
mm
Dir
 
Spd
km/h
Gust
km/h
Spd
kts
Gust
kts
19/11:30pm - - - - - SE 15 17 8 9 - - -
19/11:00pm - - - - - ESE 13 17 7 9 - - -
19/10:30pm - - - - - SE 13 15 7 8 - - -
19/10:00pm - - - - - SSE 13 13 7 7 - - -
19/09:30pm - - - - - SSE 11 13 6 7 - - -
19/09:00pm - - - - - S 13 15 7 8 - - -
19/08:30pm - - - - - S 13 15 7 8 - - -
19/08:00pm - - - - - S 17 19 9 10 - - -
19/07:30pm - - - - - S 13 15 7 8 - - -
19/07:00pm - - - - - SSW 15 17 8 9 - - -
19/06:30pm - - - - - SW 11 11 6 6 - - -
19/06:00pm - - - - - WSW 13 13 7 7 - - -
19/05:30pm - - - - - W 13 13 7 7 - - -
19/05:00pm - - - - - W 13 13 7 7 - - -
19/04:30pm - - - - - W 13 15 7 8 - - -
19/04:00pm - - - - - WNW 13 15 7 8 - - -
19/03:30pm - - - - - WNW 11 13 6 7 - - -
19/03:00pm - - - - - WNW 9 11 5 6 - - -
19/02:30pm - - - - - NNW 9 11 5 6 - - -
19/02:00pm - - - - - N 11 13 6 7 - - -
19/01:30pm - - - - - N 13 15 7 8 - - -
19/01:00pm - - - - - N 15 17 8 9 - - -
19/12:30pm - - - - - NNE 15 17 8 9 - - -
19/12:00pm - - - - - NNE 13 15 7 8 - - -
19/11:30am - - - - - NE 15 17 8 9 - - -
19/11:00am - - - - - NE 15 17 8 9 - - -
19/10:30am - - - - - NE 15 20 8 11 - - -
19/10:00am - - - - - E 13 15 7 8 - - -
19/09:30am - - - - - E 19 20 10 11 - - -
19/09:00am - - - - - ESE 19 24 10 13 - - -
19/08:30am - - - - - ESE 22 26 12 14 - - -
19/08:00am - - - - - ESE 20 26 11 14 - - -
19/07:30am - - - - - ESE 19 22 10 12 - - -
19/07:00am - - - - - SE 20 24 11 13 - - -
19/06:30am - - - - - SE 19 22 10 12 - - -
19/06:00am - - - - - ESE 19 22 10 12 - - -
19/05:30am - - - - - ESE 19 24 10 13 - - -
19/05:00am - - - - - ESE 19 24 10 13 - - -
19/04:30am - - - - - SE 19 22 10 12 - - -
19/04:00am - - - - - ESE 19 24 10 13 - - -
19/03:30am - - - - - SE 19 24 10 13 - - -
19/03:00am - - - - - SE 19 24 10 13 - - -
19/02:30am - - - - - ESE 20 26 11 14 - - -
19/02:00am - - - - - ESE 20 26 11 14 - - -
19/01:30am - - - - - ESE 20 24 11 13 - - -
19/01:00am - - - - - ESE 22 26 12 14 - - -
19/12:30am - - - - - ESE 26 28 14 15 - - -
19/12:00am - - - - - ESE 26 32 14 17 - - -
 
Date/Time
WST
Temp
°C
App
Temp
°C
Dew
Point
Rel
Hum
%
Delta-T
°C
Wind Press
QNH
hPa
Press
MSL
hPa
Rain
since 9 am
mm
Dir
 
Spd
km/h
Gust
km/h
Spd
kts
Gust
kts
18/11:30pm - - - - - ESE 28 35 15 19 - - -
18/11:00pm - - - - - ESE 30 35 16 19 - - -
18/10:30pm - - - - - ESE 30 37 16 20 - - -
18/10:00pm - - - - - SE 26 33 14 18 - - -
18/09:30pm - - - - - ESE 26 32 14 17 - - -
18/09:00pm - - - - - SE 20 26 11 14 - - -
18/08:30pm - - - - - SE 20 26 11 14 - - -
18/08:00pm - - - - - SSE 20 24 11 13 - - -
18/07:30pm - - - - - SSE 20 26 11 14 - - -
18/07:00pm - - - - - SSE 17 19 9 10 - - -
18/06:30pm - - - - - SSE 20 26 11 14 - - -
18/06:00pm - - - - - SE 19 20 10 11 - - -
18/05:30pm - - - - - SE 20 24 11 13 - - -
18/05:00pm - - - - - SE 26 30 14 16 - - -
18/04:30pm - - - - - SE 26 30 14 16 - - -
18/04:00pm - - - - - SE 20 30 11 16 - - -
18/03:30pm - - - - - ESE 17 20 9 11 - - -
18/03:00pm - - - - - ESE 22 35 12 19 - - -
18/02:30pm - - - - - E 24 28 13 15 - - -
18/02:00pm - - - - - ESE 19 24 10 13 - - -
18/01:30pm - - - - - ESE 20 26 11 14 - - -
18/01:00pm - - - - - E 19 22 10 12 - - -
18/12:30pm - - - - - E 20 26 11 14 - - -
18/12:00pm - - - - - ESE 22 28 12 15 - - -
18/11:30am - - - - - ESE 20 24 11 13 - - -
18/11:00am - - - - - ESE 19 26 10 14 - - -
18/10:30am - - - - - SE 20 26 11 14 - - -
18/10:00am - - - - - SE 22 28 12 15 - - -
18/09:30am - - - - - SE 20 24 11 13 - - -
18/09:00am - - - - - SE 17 24 9 13 - - -
18/08:30am - - - - - SE 13 17 7 9 - - -
18/08:00am - - - - - SE 11 13 6 7 - - -
18/07:30am - - - - - SSE 13 15 7 8 - - -
18/07:00am - - - - - S 9 11 5 6 - - -
18/06:30am - - - - - S 9 13 5 7 - - -
18/06:00am - - - - - SE 11 13 6 7 - - -
18/05:30am - - - - - SE 11 13 6 7 - - -
18/05:00am - - - - - SE 9 9 5 5 - - -
18/04:30am - - - - - SE 11 13 6 7 - - -
18/04:00am - - - - - SSE 11 11 6 6 - - -
18/03:30am - - - - - SSE 11 19 6 10 - - -
18/03:00am - - - - - SE 11 13 6 7 - - -
18/02:30am - - - - - SSE 11 13 6 7 - - -
18/02:00am - - - - - SSW 11 13 6 7 - - -
18/01:30am - - - - - SSE 11 11 6 6 - - -
18/01:00am - - - - - SSE 11 15 6 8 - - -
18/12:30am - - - - - S 11 13 6 7 - - -
18/12:00am - - - - - S 9 13 5 7 - - -
 
Date/Time
WST
Temp
°C
App
Temp
°C
Dew
Point
Rel
Hum
%
Delta-T
°C
Wind Press
QNH
hPa
Press
MSL
hPa
Rain
since 9 am
mm
Dir
 
Spd
km/h
Gust
km/h
Spd
kts
Gust
kts
17/11:30pm - - - - - SE 13 15 7 8 - - -
17/11:00pm - - - - - S 9 11 5 6 - - -
17/10:30pm - - - - - SW 9 13 5 7 - - -
17/10:00pm - - - - - SSW 11 13 6 7 - - -
17/09:30pm - - - - - SW 11 13 6 7 - - -
17/09:00pm - - - - - SW 11 13 6 7 - - -
17/08:30pm - - - - - SSW 15 17 8 9 - - -
17/08:00pm - - - - - SSW 15 17 8 9 - - -
17/07:30pm - - - - - SW 13 17 7 9 - - -
17/07:00pm - - - - - SW 17 19 9 10 - - -
17/06:30pm - - - - - WSW 20 26 11 14 - - -
17/06:00pm - - - - - WSW 28 33 15 18 - - -
17/05:30pm - - - - - WSW 26 30 14 16 - - -
17/05:00pm - - - - - WSW 28 32 15 17 - - -
17/04:30pm - - - - - WSW 28 33 15 18 - - -
17/04:00pm - - - - - WSW 24 32 13 17 - - -
17/03:30pm - - - - - NNW 19 20 10 11 - - -
17/03:00pm - - - - - NNW 19 20 10 11 - - -
17/02:30pm - - - - - NNW 19 20 10 11 - - -
17/02:00pm - - - - - N 17 19 9 10 - - -
17/01:30pm - - - - - N 15 17 8 9 - - -
17/01:00pm - - - - - N 13 15 7 8 - - -
17/12:30pm - - - - - NNE 11 13 6 7 - - -
17/12:00pm - - - - - N 13 13 7 7 - - -
17/11:30am - - - - - NNW 11 13 6 7 - - -
17/11:00am - - - - - N 9 11 5 6 - - -
17/10:30am - - - - - N 7 9 4 5 - - -
17/10:00am - - - - - E 7 9 4 5 - - -
17/09:30am - - - - - SE 7 9 4 5 - - -
17/09:00am - - - - - SSE 9 11 5 6 - - -
17/08:30am - - - - - SSE 11 13 6 7 - - -
17/08:00am - - - - - SE 13 15 7 8 - - -
17/07:30am - - - - - SE 11 15 6 8 - - -
17/07:00am - - - - - SSE 11 13 6 7 - - -
17/06:30am - - - - - SSW 11 15 6 8 - - -
17/06:00am - - - - - SSW 11 13 6 7 - - -
17/05:30am - - - - - SSE 11 15 6 8 - - -
17/05:00am - - - - - S 11 15 6 8 - - -
17/04:30am - - - - - SSE 11 15 6 8 - - -
17/04:00am - - - - - SSE 11 15 6 8 - - -
17/03:30am - - - - - S 11 13 6 7 - - -
17/03:00am - - - - - SSE 13 17 7 9 - - -
17/02:30am - - - - - SSE 15 19 8 10 - - -
17/02:00am - - - - - SSE 15 17 8 9 - - -

Other Formats:

Comma delimited format used in spreadsheet applications
http://www.bom.gov.au/fwo/IDW60801/IDW60801.95602.axf

JavaScript Object Notation format (JSON) in row-major order
http://www.bom.gov.au/fwo/IDW60801/IDW60801.95602.json